Raymore, Missouri
Current Conditions -  °F | °C
As of 4:15 PM on Sunday 23 Nov 2014 (Local Time) from KOJC Reporting Station
Light Rain Light Rain  
Wind Chill: 43°   Ceiling: 700
Heat Index: 49°   Visibility: 4mi
Dew Point: 48°   Wind: 15mph
Humidity: 97%   Direction: 330°NNW
Pressure: 29.34"   Gusts: NA
Location:  38.8°N, 94.46°W
Report Text: KOJC 232215Z 33013KT 4SM -RA BR BKN007 BKN014 OVC029 09/09 A2934 RMK AO2 PK WND 34027/2200 CIG 004V009 P0000 T00940089
Loading
Personal Weather Stations






























Interactive Weather Map New forecast layout! Learn more

10-Day Weather Forecast

Advertisements
Track Severe Weather on mobile